Time;durP1;ratioP1;P1;durP2;ratioP2;P2;SDS_P1;SDS_P2;PMS_P1;PMS_P2;Temp;Humidity;BMP_temperature;BMP_pressure;BME280_temperature;BME280_humidity;BME280_pressure;Samples;Min_cycle;Max_cycle;Signal;HPM_P1;HPM_P2
2022/03/30 00:00:46;;;;;;;31.50;20.37;;;10.90;92.30;;;;;;5055827;28;20514;-67
2022/03/30 00:03:12;;;;;;;27.43;18.50;;;10.80;92.10;;;;;;5055005;28;20462;-67
2022/03/30 00:05:41;;;;;;;27.90;19.27;;;10.90;92.10;;;;;;5054361;28;20935;-67
2022/03/30 00:08:07;;;;;;;32.13;21.30;;;10.90;92.10;;;;;;5055584;28;20177;-67
2022/03/30 00:10:34;;;;;;;28.00;19.60;;;11.00;91.60;;;;;;5054857;28;20471;-67
2022/03/30 00:13:00;;;;;;;33.90;20.63;;;11.10;92.00;;;;;;5055111;28;20423;-67
2022/03/30 00:15:27;;;;;;;26.43;20.23;;;11.10;91.60;;;;;;5054588;28;20415;-66
2022/03/30 00:17:52;;;;;;;28.47;20.53;;;11.20;91.80;;;;;;5037192;28;20423;-67
2022/03/30 00:20:19;;;;;;;27.73;19.80;;;11.20;91.40;;;;;;5054831;28;20466;-67
2022/03/30 00:22:46;;;;;;;26.93;18.73;;;11.20;91.30;;;;;;5055424;28;20192;-67
2022/03/30 00:25:13;;;;;;;28.77;18.87;;;11.20;91.20;;;;;;5054326;28;20840;-68
2022/03/30 00:27:43;;;;;;;27.60;20.17;;;11.00;91.20;;;;;;5055420;28;20494;-67
2022/03/30 00:30:11;;;;;;;28.87;18.67;;;11.20;91.20;;;;;;5053816;28;20422;-67
2022/03/30 00:32:37;;;;;;;30.73;19.30;;;11.30;91.30;;;;;;5054797;28;20503;-67
2022/03/30 00:35:05;;;;;;;30.10;19.80;;;11.30;91.20;;;;;;5054752;28;20509;-67
2022/03/30 00:37:31;;;;;;;30.03;19.90;;;11.30;91.30;;;;;;5053147;28;20770;-67
2022/03/30 00:39:57;;;;;;;27.77;17.73;;;11.40;91.30;;;;;;5055039;28;20418;-67
2022/03/30 00:42:24;;;;;;;27.20;18.67;;;11.30;91.00;;;;;;5054342;28;20458;-67
2022/03/30 00:44:51;;;;;;;28.30;19.67;;;11.40;91.30;;;;;;5054947;28;20491;-67
2022/03/30 00:47:26;;;;;;;25.83;19.77;;;11.40;91.20;;;;;;5054193;28;20953;-67
2022/03/30 00:49:53;;;;;;;27.23;19.40;;;11.30;91.00;;;;;;5054674;28;20475;-67
2022/03/30 00:52:20;;;;;;;26.50;19.30;;;11.30;91.10;;;;;;5054143;28;20416;-67
2022/03/30 00:54:50;;;;;;;27.03;18.27;;;11.30;91.20;;;;;;5053341;28;20891;-67
2022/03/30 00:57:20;;;;;;;27.13;18.63;;;11.20;90.90;;;;;;5054325;28;20412;-68
2022/03/30 00:59:47;;;;;;;23.60;17.30;;;11.20;91.00;;;;;;5053262;28;20422;-67
2022/03/30 01:02:14;;;;;;;25.27;18.07;;;11.20;91.00;;;;;;5053714;28;20846;-69
2022/03/30 01:04:40;;;;;;;25.00;17.00;;;11.20;91.10;;;;;;5053405;28;20827;-67
2022/03/30 01:07:06;;;;;;;28.60;16.20;;;11.10;91.20;;;;;;5054779;28;20416;-67
2022/03/30 01:09:32;;;;;;;28.63;17.87;;;11.10;91.20;;;;;;5053733;28;20548;-67
2022/03/30 01:11:58;;;;;;;24.43;17.30;;;11.00;91.20;;;;;;5054484;28;20280;-67
2022/03/30 01:14:25;;;;;;;28.13;19.00;;;11.10;91.40;;;;;;5053631;28;20541;-67
2022/03/30 01:16:51;;;;;;;25.20;17.40;;;11.10;91.30;;;;;;5053016;28;20424;-67
2022/03/30 01:19:17;;;;;;;26.00;18.83;;;11.00;91.30;;;;;;5053677;28;20412;-67
2022/03/30 01:21:44;;;;;;;28.53;18.57;;;11.00;91.40;;;;;;5054270;28;20458;-67
2022/03/30 01:24:12;;;;;;;26.30;18.67;;;11.00;91.60;;;;;;5054120;28;20421;-67
2022/03/30 01:26:40;;;;;;;27.63;19.00;;;11.00;91.50;;;;;;5054387;28;20916;-67
2022/03/30 01:32:25;;;;;;;27.23;19.40;;;10.90;91.70;;;;;;5054111;28;20415;-67
2022/03/30 01:32:29;;;;;;;31.33;17.70;;;11.00;91.80;;;;;;5054090;28;20489;-67
2022/03/30 01:34:48;;;;;;;26.17;19.20;;;10.90;92.30;;;;;;5052501;28;20465;-67
2022/03/30 01:37:14;;;;;;;29.83;20.03;;;10.90;92.40;;;;;;5053203;28;20423;-75
2022/03/30 01:39:41;;;;;;;25.63;17.77;;;10.80;92.50;;;;;;5053855;28;20490;-67
2022/03/30 01:42:07;;;;;;;35.10;19.93;;;10.90;92.90;;;;;;5053616;28;20901;-67
2022/03/30 01:44:34;;;;;;;25.67;18.53;;;10.90;92.60;;;;;;5052905;28;20874;-67
2022/03/30 01:47:00;;;;;;;23.37;17.03;;;10.90;93.20;;;;;;5053378;28;20455;-67
2022/03/30 01:49:26;;;;;;;28.80;19.23;;;10.90;92.80;;;;;;5052776;28;20464;-67
2022/03/30 01:51:53;;;;;;;29.27;20.57;;;10.80;92.90;;;;;;5053752;28;20183;-67
2022/03/30 01:54:22;;;;;;;34.53;20.07;;;10.80;92.90;;;;;;5051611;28;20973;-67
2022/03/30 01:56:49;;;;;;;25.23;17.90;;;10.90;92.90;;;;;;5053762;28;20470;-67
2022/03/30 01:59:16;;;;;;;27.50;17.70;;;10.90;92.90;;;;;;5053235;28;20497;-74
2022/03/30 02:01:42;;;;;;;27.60;18.37;;;10.90;92.80;;;;;;5052919;28;20856;-67
2022/03/30 02:04:09;;;;;;;28.80;18.73;;;10.90;92.80;;;;;;5053428;28;20447;-67
2022/03/30 02:06:38;;;;;;;30.20;18.10;;;11.10;92.90;;;;;;5052736;28;20411;-67
2022/03/30 02:09:05;;;;;;;23.50;16.80;;;11.00;92.80;;;;;;5053166;28;20922;-67
2022/03/30 02:11:31;;;;;;;23.00;17.10;;;11.00;92.50;;;;;;5052434;28;20764;-67
2022/03/30 02:13:57;;;;;;;23.60;16.27;;;11.00;92.40;;;;;;5053127;28;20460;-67
2022/03/30 02:16:24;;;;;;;23.23;16.07;;;11.00;92.30;;;;;;5052613;28;20409;-67
2022/03/30 02:18:50;;;;;;;22.73;15.20;;;11.00;92.30;;;;;;5053134;28;20466;-67
2022/03/30 02:21:17;;;;;;;25.87;17.00;;;10.90;92.50;;;;;;5052481;28;20803;-74
2022/03/30 02:23:47;;;;;;;23.23;17.07;;;10.90;92.70;;;;;;5053276;28;20442;-67
2022/03/30 02:26:14;;;;;;;22.67;16.27;;;10.80;92.60;;;;;;5052668;28;20433;-67
2022/03/30 02:28:40;;;;;;;23.00;16.80;;;10.70;92.80;;;;;;5052616;28;20485;-67
2022/03/30 02:31:06;;;;;;;24.33;17.47;;;10.70;92.90;;;;;;5053180;28;20920;-67
2022/03/30 02:33:32;;;;;;;22.50;16.60;;;10.70;92.90;;;;;;5052210;28;20464;-67
2022/03/30 02:35:58;;;;;;;26.50;16.03;;;10.60;93.10;;;;;;5051296;28;20445;-67
2022/03/30 02:38:23;;;;;;;23.97;16.63;;;10.50;93.40;;;;;;5052209;28;20224;-67
2022/03/30 02:40:49;;;;;;;22.60;16.00;;;10.50;93.70;;;;;;5052799;28;20184;-67
2022/03/30 02:43:19;;;;;;;24.00;16.83;;;10.40;93.90;;;;;;5052769;28;20698;-67
2022/03/30 02:45:49;;;;;;;24.30;16.47;;;10.40;94.00;;;;;;5052530;28;20555;-67
2022/03/30 02:48:18;;;;;;;28.90;17.73;;;10.30;93.80;;;;;;5052948;28;20431;-67
2022/03/30 02:50:45;;;;;;;30.17;18.57;;;10.10;93.70;;;;;;5052776;28;20413;-67
2022/03/30 02:53:11;;;;;;;25.40;15.83;;;10.10;93.90;;;;;;5052500;28;20414;-67
2022/03/30 02:55:37;;;;;;;26.30;15.60;;;9.90;94.80;;;;;;5051974;28;20417;-67
2022/03/30 02:58:07;;;;;;;25.97;16.07;;;9.80;95.40;;;;;;5052510;28;20412;-67
2022/03/30 03:00:33;;;;;;;26.20;16.70;;;9.60;95.40;;;;;;5051743;28;20416;-67
2022/03/30 03:03:00;;;;;;;28.77;17.67;;;9.40;96.10;;;;;;5052599;28;20417;-67
2022/03/30 03:05:31;;;;;;;27.77;17.83;;;9.50;96.40;;;;;;5052129;28;20414;-67
2022/03/30 03:07:58;;;;;;;26.27;16.80;;;9.40;96.30;;;;;;5052850;28;20414;-67
2022/03/30 03:10:25;;;;;;;30.13;17.33;;;9.50;96.40;;;;;;5051804;28;20408;-67
2022/03/30 03:12:52;;;;;;;28.97;16.77;;;9.50;96.60;;;;;;5052423;28;20493;-67
2022/03/30 03:15:17;;;;;;;25.33;18.47;;;9.50;96.70;;;;;;5052032;28;20464;-67
2022/03/30 03:17:43;;;;;;;24.93;17.30;;;9.60;96.70;;;;;;5051775;28;20832;-67
2022/03/30 03:20:11;;;;;;;30.67;17.20;;;9.60;96.60;;;;;;5052501;28;20256;-67
2022/03/30 03:22:38;;;;;;;28.53;16.67;;;9.70;96.40;;;;;;5053949;28;20610;-67
2022/03/30 03:25:04;;;;;;;24.10;15.93;;;9.40;96.10;;;;;;5056469;28;20426;-67
2022/03/30 03:27:30;;;;;;;24.50;16.33;;;9.70;96.20;;;;;;5055482;28;20428;-67
2022/03/30 03:29:56;;;;;;;29.93;19.27;;;9.70;96.20;;;;;;5056406;28;20420;-67
2022/03/30 03:32:21;;;;;;;26.53;17.57;;;9.70;96.10;;;;;;5055399;28;20594;-68
2022/03/30 03:34:48;;;;;;;26.93;19.13;;;9.70;96.10;;;;;;5055950;28;20209;-67
2022/03/30 03:37:15;;;;;;;23.53;15.80;;;9.80;96.00;;;;;;5056208;28;20218;-67
2022/03/30 03:39:42;;;;;;;26.03;16.87;;;9.70;95.80;;;;;;5055531;28;20673;-67
2022/03/30 03:42:08;;;;;;;23.90;16.33;;;9.70;95.80;;;;;;5056077;28;20456;-67
2022/03/30 03:44:34;;;;;;;26.73;17.63;;;9.70;95.80;;;;;;5054169;28;20826;-67
2022/03/30 03:46:59;;;;;;;27.00;19.77;;;9.70;95.80;;;;;;5055996;28;20186;-67
2022/03/30 03:49:25;;;;;;;33.50;21.20;;;9.70;95.80;;;;;;5055333;28;20419;-67
2022/03/30 03:51:51;;;;;;;26.20;17.03;;;9.70;96.00;;;;;;5055948;28;20170;-67
2022/03/30 03:54:17;;;;;;;29.43;18.13;;;9.50;95.90;;;;;;5055781;28;20813;-67
2022/03/30 03:56:43;;;;;;;25.43;17.80;;;9.70;95.90;;;;;;5055140;28;20186;-67
2022/03/30 03:59:10;;;;;;;25.20;16.90;;;9.70;95.90;;;;;;5055750;28;20183;-67
2022/03/30 04:01:36;;;;;;;24.80;18.00;;;9.70;95.80;;;;;;5055263;28;20512;-67
2022/03/30 04:04:02;;;;;;;26.20;18.27;;;9.70;96.00;;;;;;5055898;28;20515;-67
2022/03/30 04:06:29;;;;;;;27.93;17.17;;;9.70;96.00;;;;;;5053870;28;20761;-67
2022/03/30 04:08:55;;;;;;;28.13;17.20;;;9.30;95.90;;;;;;5055531;28;20475;-67
2022/03/30 04:11:21;;;;;;;25.83;16.53;;;9.60;96.20;;;;;;5055609;28;20446;-67
2022/03/30 04:13:46;;;;;;;27.37;17.97;;;9.60;96.40;;;;;;5054837;28;20495;-67
2022/03/30 04:16:15;;;;;;;26.73;17.40;;;9.60;96.60;;;;;;5055537;28;20652;-67
2022/03/30 04:18:41;;;;;;;31.60;17.37;;;9.00;96.40;;;;;;5054771;28;20577;-67
2022/03/30 04:21:06;;;;;;;27.40;17.40;;;9.20;97.10;;;;;;5055289;28;20551;-67
2022/03/30 04:23:32;;;;;;;29.87;18.10;;;9.10;97.70;;;;;;5053528;28;20602;-67
2022/03/30 04:25:58;;;;;;;27.13;16.80;;;8.60;97.80;;;;;;5054061;28;20174;-67
2022/03/30 04:28:24;;;;;;;30.23;18.33;;;8.90;98.20;;;;;;5055525;28;20594;-67
2022/03/30 04:30:49;;;;;;;28.77;17.10;;;8.80;98.40;;;;;;5055274;28;20265;-67
2022/03/30 04:33:15;;;;;;;30.03;19.07;;;8.80;98.40;;;;;;5055043;28;20653;-67
2022/03/30 04:35:41;;;;;;;27.83;18.23;;;8.80;98.50;;;;;;5054512;28;20196;-67
2022/03/30 04:38:06;;;;;;;26.30;17.10;;;8.80;98.60;;;;;;5054997;28;20173;-67
2022/03/30 04:40:32;;;;;;;31.17;18.43;;;8.70;98.90;;;;;;5054407;28;20189;-67
2022/03/30 04:42:58;;;;;;;34.07;20.00;;;8.60;99.10;;;;;;5054957;28;20181;-67
2022/03/30 04:45:24;;;;;;;34.10;18.97;;;8.60;99.20;;;;;;5053677;28;20569;-67
2022/03/30 04:47:54;;;;;;;30.20;18.40;;;8.50;99.20;;;;;;5053550;28;20422;-67
2022/03/30 04:50:21;;;;;;;25.80;18.23;;;8.60;99.20;;;;;;5037595;28;20420;-67
2022/03/30 04:52:47;;;;;;;30.67;20.53;;;8.30;99.00;;;;;;5054387;28;20923;-67
2022/03/30 04:55:13;;;;;;;27.27;18.27;;;8.70;98.90;;;;;;5054661;28;20550;-67
2022/03/30 04:57:40;;;;;;;32.10;19.03;;;8.80;98.80;;;;;;5054343;28;20783;-67
2022/03/30 05:00:09;;;;;;;35.53;18.90;;;8.80;98.60;;;;;;5054228;28;20638;-67
2022/03/30 05:02:35;;;;;;;27.70;18.57;;;8.90;98.50;;;;;;5054237;28;20807;-67
2022/03/30 05:05:01;;;;;;;27.23;17.67;;;9.10;98.20;;;;;;5054534;28;20444;-67
2022/03/30 05:07:27;;;;;;;30.70;19.40;;;9.00;97.80;;;;;;5052737;28;20456;-70
2022/03/30 05:09:52;;;;;;;33.33;17.80;;;8.90;97.30;;;;;;5054537;28;20257;-67
2022/03/30 05:12:18;;;;;;;42.13;26.20;;;8.80;97.40;;;;;;5054364;28;20174;-67
2022/03/30 05:14:44;;;;;;;34.37;19.90;;;8.80;97.60;;;;;;5053403;28;20217;-67
2022/03/30 05:17:10;;;;;;;31.57;18.87;;;8.70;97.80;;;;;;5054328;28;20836;-67
2022/03/30 05:19:39;;;;;;;28.30;19.10;;;8.80;97.80;;;;;;5053674;28;20405;-67
2022/03/30 05:22:05;;;;;;;30.90;18.20;;;9.10;98.00;;;;;;5054368;28;20503;-67
2022/03/30 05:24:31;;;;;;;25.77;17.80;;;8.70;97.50;;;;;;5053795;28;20463;-67
2022/03/30 05:26:57;;;;;;;34.53;20.10;;;8.60;97.90;;;;;;5054339;28;20174;-67
2022/03/30 05:29:23;;;;;;;30.00;19.33;;;8.50;98.30;;;;;;5053949;28;20754;-67
2022/03/30 05:31:49;;;;;;;27.10;18.43;;;8.50;98.40;;;;;;5053388;28;20784;-67
2022/03/30 05:34:15;;;;;;;26.77;17.83;;;8.40;98.60;;;;;;5053626;28;20512;-67
2022/03/30 05:36:41;;;;;;;32.80;19.00;;;8.30;98.30;;;;;;5053328;28;20210;-67
2022/03/30 05:39:06;;;;;;;28.10;18.37;;;8.30;98.50;;;;;;5053878;28;20517;-67
2022/03/30 05:41:33;;;;;;;29.00;17.73;;;8.20;98.60;;;;;;5053290;28;20260;-67
2022/03/30 05:43:59;;;;;;;26.63;17.63;;;8.30;98.90;;;;;;5053792;28;20186;-67
2022/03/30 05:46:26;;;;;;;28.30;18.53;;;8.30;98.80;;;;;;5053210;28;20765;-67
2022/03/30 05:48:51;;;;;;;35.63;18.80;;;8.40;99.00;;;;;;5053051;28;20439;-67
2022/03/30 05:51:18;;;;;;;37.43;23.30;;;8.50;99.00;;;;;;5053878;28;20872;-67
2022/03/30 05:53:45;;;;;;;29.33;17.33;;;8.50;99.00;;;;;;5052906;28;20220;-67
2022/03/30 05:56:10;;;;;;;27.87;18.30;;;8.50;98.90;;;;;;5053391;28;20427;-67
2022/03/30 05:58:37;;;;;;;29.53;18.63;;;8.60;98.80;;;;;;5052115;28;20499;-67
2022/03/30 06:01:03;;;;;;;38.13;18.73;;;8.50;98.70;;;;;;5053343;28;20587;-67
2022/03/30 06:03:29;;;;;;;29.47;19.97;;;8.70;98.90;;;;;;5053395;28;20458;-67
2022/03/30 06:05:55;;;;;;;30.00;20.13;;;8.70;99.00;;;;;;5053333;28;20420;-67
2022/03/30 06:08:21;;;;;;;32.77;18.80;;;8.70;98.70;;;;;;5053304;28;20474;-67
2022/03/30 06:10:47;;;;;;;31.53;18.80;;;8.70;98.90;;;;;;5052678;28;20234;-67
2022/03/30 06:13:13;;;;;;;26.90;20.17;;;8.90;98.90;;;;;;5052979;28;20170;-67
2022/03/30 06:15:39;;;;;;;28.33;18.30;;;8.20;98.70;;;;;;5051819;28;20190;-67
2022/03/30 06:18:10;;;;;;;28.20;19.60;;;8.40;98.90;;;;;;5052353;28;20439;-67
2022/03/30 06:20:37;;;;;;;32.20;20.13;;;8.80;99.10;;;;;;5052490;28;20456;-67
2022/03/30 06:23:03;;;;;;;31.13;19.57;;;8.80;98.90;;;;;;5053315;28;20416;-67
2022/03/30 06:25:30;;;;;;;33.67;21.00;;;8.80;98.70;;;;;;5053038;28;20408;-67
2022/03/30 06:27:57;;;;;;;37.20;18.70;;;8.80;98.60;;;;;;5052894;28;20503;-67
2022/03/30 06:30:24;;;;;;;30.43;18.67;;;8.80;98.50;;;;;;5052632;28;20420;-67
2022/03/30 06:32:51;;;;;;;30.47;19.80;;;8.90;98.40;;;;;;5051886;28;20424;-67
2022/03/30 06:35:19;;;;;;;26.57;18.40;;;8.90;98.30;;;;;;5052865;28;20857;-67
2022/03/30 06:37:45;;;;;;;26.03;16.90;;;9.00;98.30;;;;;;5051971;28;20411;-67
2022/03/30 06:40:12;;;;;;;30.40;18.50;;;9.00;98.30;;;;;;5052667;28;20416;-67
2022/03/30 06:42:39;;;;;;;32.30;19.93;;;9.00;98.00;;;;;;5052100;28;20409;-67
2022/03/30 06:45:07;;;;;;;35.07;18.93;;;9.10;97.70;;;;;;5052644;28;20904;-67
2022/03/30 06:47:33;;;;;;;30.47;20.10;;;9.10;97.70;;;;;;5052129;28;20427;-74
2022/03/30 06:49:59;;;;;;;26.63;19.30;;;9.10;97.90;;;;;;5051365;28;20419;-67
2022/03/30 06:52:26;;;;;;;26.80;17.93;;;9.30;97.90;;;;;;5052393;28;20409;-67
2022/03/30 06:54:51;;;;;;;31.07;18.60;;;9.30;97.50;;;;;;5050524;28;20566;-67
2022/03/30 06:57:17;;;;;;;25.13;17.33;;;9.30;97.10;;;;;;5052937;28;20416;-67
2022/03/30 06:59:43;;;;;;;29.33;19.40;;;9.40;97.40;;;;;;5051889;28;20622;-67
2022/03/30 07:02:08;;;;;;;30.30;19.07;;;9.30;97.90;;;;;;5052397;28;20191;-67
2022/03/30 07:04:35;;;;;;;34.00;19.40;;;9.30;98.10;;;;;;5051883;28;20190;-68
2022/03/30 07:12:31;;;;;;;27.53;18.90;;;9.10;98.50;;;;;;5052516;28;20389;-67
2022/03/30 07:14:56;;;;;;;30.70;19.63;;;9.00;98.70;;;;;;5051728;28;20551;-67
2022/03/30 07:17:22;;;;;;;30.70;19.70;;;9.20;98.80;;;;;;5052661;28;20408;-67
2022/03/30 07:19:48;;;;;;;30.10;17.40;;;9.20;98.50;;;;;;5051745;28;20182;-67
2022/03/30 07:22:14;;;;;;;30.97;18.97;;;9.20;97.90;;;;;;5052206;28;20193;-67
2022/03/30 07:24:41;;;;;;;30.00;19.00;;;9.30;97.50;;;;;;5051698;28;20424;-67
2022/03/30 07:27:07;;;;;;;28.57;19.77;;;9.30;97.60;;;;;;5052235;28;20198;-67
2022/03/30 07:29:33;;;;;;;31.90;19.97;;;9.40;97.10;;;;;;5052019;28;20490;-67
2022/03/30 07:31:58;;;;;;;29.30;20.40;;;9.50;97.30;;;;;;5051636;28;20475;-67
2022/03/30 07:34:24;;;;;;;29.40;19.30;;;9.70;96.80;;;;;;5052129;28;20203;-67
2022/03/30 07:36:50;;;;;;;29.50;20.33;;;9.70;96.90;;;;;;5051567;28;20182;-67
2022/03/30 07:39:16;;;;;;;32.73;20.07;;;9.70;96.90;;;;;;5052121;28;20181;-67
2022/03/30 07:41:42;;;;;;;35.20;22.80;;;9.70;96.90;;;;;;5051229;28;20416;-67
2022/03/30 07:44:08;;;;;;;37.67;21.77;;;9.80;96.70;;;;;;5052110;28;20439;-67
2022/03/30 07:46:36;;;;;;;34.40;21.40;;;9.90;95.90;;;;;;5052059;28;20436;-67
2022/03/30 07:49:02;;;;;;;37.23;22.50;;;10.00;95.40;;;;;;5052330;28;20254;-67
2022/03/30 07:51:29;;;;;;;28.30;20.17;;;10.00;95.90;;;;;;5052133;28;20511;-67
2022/03/30 07:53:54;;;;;;;30.33;21.30;;;10.00;96.00;;;;;;5051334;28;20523;-67
2022/03/30 07:56:21;;;;;;;26.77;18.80;;;9.90;95.50;;;;;;5052042;28;20796;-67
2022/03/30 07:58:48;;;;;;;26.07;19.00;;;9.80;95.40;;;;;;5051499;28;20210;-67
2022/03/30 08:01:16;;;;;;;31.33;20.37;;;9.80;95.40;;;;;;5052050;28;20423;-66
2022/03/30 08:03:44;;;;;;;28.77;20.03;;;9.70;95.90;;;;;;5051287;28;20424;-67
2022/03/30 08:06:10;;;;;;;30.77;19.80;;;9.70;96.10;;;;;;5050874;28;20951;-67
2022/03/30 08:08:36;;;;;;;36.73;20.97;;;9.70;96.00;;;;;;5053799;28;20406;-67
2022/03/30 08:11:02;;;;;;;30.43;19.73;;;9.80;96.00;;;;;;5054613;28;20417;-67
2022/03/30 08:13:28;;;;;;;34.93;20.77;;;10.10;95.30;;;;;;5054977;28;20469;-67
2022/03/30 08:15:54;;;;;;;30.00;20.10;;;9.90;95.30;;;;;;5055100;28;20457;-67
2022/03/30 08:18:19;;;;;;;29.20;20.57;;;10.00;95.10;;;;;;5055450;28;20209;-67
2022/03/30 08:23:30;;;;;;;26.93;20.43;;;10.30;95.20;;;;;;5055367;28;20173;-67
2022/03/30 08:25:57;;;;;;;32.27;19.70;;;10.40;94.80;;;;;;5054545;28;20941;-67
2022/03/30 08:28:23;;;;;;;26.83;18.77;;;10.40;95.10;;;;;;5055270;28;20511;-67
2022/03/30 08:30:49;;;;;;;29.30;18.93;;;10.50;95.00;;;;;;5054638;28;20448;-67
2022/03/30 08:33:16;;;;;;;28.90;18.60;;;10.50;94.20;;;;;;5054962;28;20188;-67
2022/03/30 08:35:42;;;;;;;28.50;18.17;;;10.60;93.90;;;;;;5054518;28;20239;-68
2022/03/30 08:38:08;;;;;;;30.17;20.90;;;10.80;94.20;;;;;;5055034;28;20501;-67
2022/03/30 08:40:35;;;;;;;22.73;17.37;;;10.90;93.90;;;;;;5055276;28;20494;-67
2022/03/30 08:43:00;;;;;;;22.73;17.70;;;11.00;94.20;;;;;;5054417;28;20841;-67
2022/03/30 08:45:26;;;;;;;27.53;16.87;;;10.90;93.10;;;;;;5055309;28;20437;-67
2022/03/30 08:47:52;;;;;;;25.43;18.33;;;11.00;92.50;;;;;;5053124;28;20625;-67
2022/03/30 08:50:19;;;;;;;24.63;17.97;;;11.00;92.80;;;;;;5054953;28;20181;-67
2022/03/30 08:52:49;;;;;;;25.03;16.70;;;11.10;92.20;;;;;;5053887;28;20406;-67
2022/03/30 08:55:16;;;;;;;25.80;17.40;;;11.30;92.20;;;;;;5053508;28;20451;-67
2022/03/30 08:57:42;;;;;;;25.23;16.30;;;11.30;92.60;;;;;;5054404;28;20427;-67
2022/03/30 09:00:13;;;;;;;25.53;16.17;;;11.40;92.30;;;;;;5054742;28;20414;-67
2022/03/30 09:02:42;;;;;;;20.83;15.10;;;11.50;92.20;;;;;;5054703;28;20427;-67
2022/03/30 09:05:22;;;;;;;23.60;16.20;;;11.50;91.40;;;;;;5054262;28;20420;-67
2022/03/30 09:07:54;;;;;;;22.63;15.00;;;11.50;91.40;;;;;;5053641;28;20404;-68
2022/03/30 09:10:32;;;;;;;25.77;15.50;;;11.60;91.70;;;;;;5054289;28;20412;-67
2022/03/30 09:12:58;;;;;;;27.73;16.43;;;11.70;92.50;;;;;;5053928;28;20388;-67
2022/03/30 09:15:25;;;;;;;24.10;15.80;;;11.80;92.20;;;;;;5054342;28;20456;-67
2022/03/30 09:18:00;;;;;;;22.67;15.23;;;11.90;92.00;;;;;;5053618;28;20408;-67
2022/03/30 09:20:26;;;;;;;20.83;15.77;;;11.90;92.00;;;;;;5052877;28;20553;-67
2022/03/30 09:22:57;;;;;;;22.60;14.20;;;12.10;91.00;;;;;;5053647;28;20411;-67
2022/03/30 09:25:24;;;;;;;19.70;13.53;;;12.30;89.90;;;;;;5054497;28;20397;-67
2022/03/30 09:27:53;;;;;;;20.47;15.80;;;12.40;90.00;;;;;;5053563;28;20417;-67
2022/03/30 09:30:21;;;;;;;25.60;14.87;;;12.60;88.70;;;;;;5054174;28;20420;-67
2022/03/30 09:32:52;;;;;;;22.87;15.37;;;12.70;90.70;;;;;;5053532;28;20471;-67
2022/03/30 09:35:39;;;;;;;20.83;14.70;;;12.80;89.70;;;;;;5053709;28;20444;-67
2022/03/30 09:38:16;;;;;;;21.30;14.00;;;13.20;89.50;;;;;;5053050;28;20503;-67
2022/03/30 09:40:57;;;;;;;19.77;13.27;;;13.60;86.10;;;;;;5054035;28;20396;-68
2022/03/30 09:43:28;;;;;;;18.17;14.40;;;13.70;85.00;;;;;;5053819;28;20411;-67
2022/03/30 09:46:06;;;;;;;21.13;13.33;;;13.90;82.00;;;;;;5052978;28;20408;-68
2022/03/30 09:48:43;;;;;;;22.77;16.83;;;14.10;82.00;;;;;;5053721;28;20490;-67
2022/03/30 09:51:10;;;;;;;21.00;15.27;;;14.20;83.40;;;;;;5053955;28;20432;-67
2022/03/30 09:53:37;;;;;;;18.67;15.10;;;14.40;81.90;;;;;;5053557;28;20586;-67
2022/03/30 09:56:05;;;;;;;17.20;13.87;;;14.80;81.00;;;;;;5051921;28;20405;-67
2022/03/30 09:58:34;;;;;;;20.97;16.20;;;15.00;81.50;;;;;;5053485;28;20420;-67
2022/03/30 10:01:10;;;;;;;18.00;13.87;;;15.30;78.80;;;;;;5053063;28;20416;-68
2022/03/30 10:03:51;;;;;;;18.27;14.33;;;15.70;74.80;;;;;;5052316;28;20513;-67
2022/03/30 10:06:23;;;;;;;20.50;15.60;;;15.80;73.90;;;;;;5053557;28;20449;-67
2022/03/30 10:08:51;;;;;;;24.47;15.23;;;15.90;71.00;;;;;;5051674;28;20482;-68
2022/03/30 10:11:18;;;;;;;19.63;13.40;;;16.00;70.50;;;;;;5053350;28;20408;-68
2022/03/30 10:13:50;;;;;;;20.07;14.30;;;16.10;71.60;;;;;;5053199;28;20799;-67
2022/03/30 10:16:17;;;;;;;18.07;14.20;;;16.40;72.70;;;;;;5053415;28;20495;-67
2022/03/30 10:18:43;;;;;;;18.90;14.50;;;16.50;68.20;;;;;;5053155;28;20485;-67
2022/03/30 10:21:28;;;;;;;20.70;14.70;;;16.60;71.10;;;;;;5052173;28;20526;-67
2022/03/30 10:23:56;;;;;;;19.03;14.93;;;16.90;69.60;;;;;;5052579;28;20415;-68
2022/03/30 10:26:31;;;;;;;17.37;13.40;;;16.90;67.30;;;;;;5052921;28;20412;-68
2022/03/30 10:29:09;;;;;;;18.50;14.97;;;16.90;65.60;;;;;;5052446;28;20402;-68
2022/03/30 10:31:35;;;;;;;18.00;13.40;;;16.90;67.80;;;;;;5051005;28;20431;-68
2022/03/30 10:34:27;;;;;;;17.23;13.60;;;17.00;66.60;;;;;;5052305;28;20840;-68
2022/03/30 10:37:08;;;;;;;18.40;14.40;;;17.00;67.70;;;;;;5052100;28;20743;-68
2022/03/30 10:39:35;;;;;;;18.57;15.77;;;17.20;70.30;;;;;;5053136;28;20397;-67
2022/03/30 10:42:09;;;;;;;15.50;13.37;;;17.50;65.70;;;;;;5052107;28;20420;-67
2022/03/30 10:44:59;;;;;;;18.30;14.20;;;17.50;66.70;;;;;;5052735;28;20411;-67
2022/03/30 10:47:27;;;;;;;17.13;13.00;;;17.50;65.30;;;;;;5052828;28;20401;-68
2022/03/30 10:49:56;;;;;;;16.53;12.67;;;17.70;66.40;;;;;;5050825;28;20766;-68
2022/03/30 10:52:57;;;;;;;15.93;13.20;;;17.90;66.00;;;;;;5052562;28;20474;-67
2022/03/30 10:55:25;;;;;;;14.53;13.10;;;18.10;63.80;;;;;;5029525;28;20482;-68
2022/03/30 10:57:57;;;;;;;14.87;13.13;;;18.00;59.60;;;;;;5051630;28;20416;-67
2022/03/30 11:00:25;;;;;;;16.00;12.33;;;18.10;60.30;;;;;;5053112;28;20916;-67
2022/03/30 11:02:52;;;;;;;15.03;13.43;;;18.30;59.00;;;;;;5050570;28;20416;-68
2022/03/30 11:05:28;;;;;;;18.10;13.50;;;18.40;60.50;;;;;;5051384;28;20415;-67
2022/03/30 11:07:53;;;;;;;17.07;14.73;;;18.50;61.20;;;;;;5051852;28;20439;-68
2022/03/30 11:10:49;;;;;;;16.37;13.73;;;18.40;59.80;;;;;;5052363;28;20442;-70
2022/03/30 11:13:25;;;;;;;14.13;12.20;;;18.40;58.90;;;;;;5052054;28;20334;-68
2022/03/30 11:15:57;;;;;;;15.27;12.40;;;18.50;57.30;;;;;;5050279;28;20512;-68
2022/03/30 11:18:24;;;;;;;14.93;12.90;;;18.70;57.60;;;;;;5050919;28;20420;-68
2022/03/30 11:21:08;;;;;;;15.27;11.90;;;18.60;58.30;;;;;;5051537;28;20474;-69
2022/03/30 11:23:35;;;;;;;16.40;12.77;;;17.90;59.90;;;;;;5052357;28;20415;-67
2022/03/30 11:26:01;;;;;;;14.27;12.17;;;18.20;58.30;;;;;;5051574;28;20432;-67
2022/03/30 11:28:38;;;;;;;14.53;12.80;;;18.20;58.70;;;;;;5052088;28;20929;-67
2022/03/30 11:31:17;;;;;;;19.13;14.03;;;18.30;58.20;;;;;;5050115;28;20626;-68
2022/03/30 11:33:43;;;;;;;17.73;12.00;;;18.40;57.00;;;;;;5052247;28;20448;-67
2022/03/30 11:36:09;;;;;;;15.00;11.17;;;18.50;59.00;;;;;;5051590;28;20681;-67
2022/03/30 11:38:39;;;;;;;13.47;11.90;;;18.60;58.00;;;;;;5052380;28;20210;-66
2022/03/30 11:41:10;;;;;;;14.90;11.83;;;18.50;56.90;;;;;;5051593;28;20416;-68
2022/03/30 11:46:30;;;;;;;13.50;12.10;;;18.70;57.50;;;;;;5055876;28;20393;-67
2022/03/30 11:49:00;;;;;;;10.80;9.63;;;18.60;58.30;;;;;;5055425;28;20443;-68
2022/03/30 11:51:26;;;;;;;12.60;10.90;;;18.80;59.00;;;;;;5055921;28;20885;-67
2022/03/30 11:54:16;;;;;;;12.50;10.60;;;18.90;55.40;;;;;;5055187;28;20462;-69
2022/03/30 11:56:42;;;;;;;10.80;9.80;;;19.00;55.40;;;;;;5055859;28;20409;-68
2022/03/30 11:59:09;;;;;;;12.00;10.80;;;19.00;56.30;;;;;;5055298;28;20408;-68
2022/03/30 12:01:36;;;;;;;11.93;10.40;;;19.00;55.00;;;;;;5056022;28;20881;-67
2022/03/30 12:04:03;;;;;;;12.13;10.67;;;18.90;55.00;;;;;;5055162;28;20515;-68
2022/03/30 12:06:28;;;;;;;12.43;11.20;;;18.90;56.20;;;;;;5055674;28;20446;-68
2022/03/30 12:08:54;;;;;;;10.90;9.80;;;19.00;58.50;;;;;;5055337;28;20939;-68
2022/03/30 12:11:22;;;;;;;11.57;10.47;;;19.10;56.30;;;;;;5055581;28;20178;-67
2022/03/30 12:13:52;;;;;;;10.53;9.53;;;19.00;55.60;;;;;;5055477;28;20483;-67
2022/03/30 12:16:19;;;;;;;12.00;10.80;;;18.90;56.40;;;;;;5055158;28;20943;-67
2022/03/30 12:18:50;;;;;;;12.47;11.17;;;19.00;56.10;;;;;;5055487;28;20417;-67
2022/03/30 12:21:20;;;;;;;13.00;10.30;;;19.20;54.80;;;;;;5053539;28;20460;-68
2022/03/30 12:24:07;;;;;;;11.43;10.23;;;19.10;57.20;;;;;;5055053;28;20420;-67
2022/03/30 12:26:33;;;;;;;11.10;9.97;;;19.20;55.90;;;;;;5055768;28;20761;-67
2022/03/30 12:29:03;;;;;;;10.97;9.87;;;18.80;56.40;;;;;;5054716;28;20523;-68
2022/03/30 12:31:54;;;;;;;15.50;11.87;;;18.80;58.20;;;;;;5055016;28;20900;-67
2022/03/30 12:34:23;;;;;;;12.43;10.53;;;18.80;56.70;;;;;;5046484;28;20967;-67
2022/03/30 12:36:53;;;;;;;13.43;12.03;;;18.60;57.10;;;;;;5055171;28;20416;-67
2022/03/30 12:39:25;;;;;;;12.30;11.20;;;18.60;57.20;;;;;;5054839;28;20416;-67
2022/03/30 12:41:58;;;;;;;11.93;10.40;;;18.60;56.10;;;;;;5053882;28;20438;-67
2022/03/30 12:44:30;;;;;;;13.87;12.47;;;18.50;57.10;;;;;;5054934;28;20420;-67
2022/03/30 12:46:58;;;;;;;12.00;10.80;;;18.40;55.70;;;;;;5054365;28;20759;-68